sensor_id;sensor_type;location;lat;lon;timestamp;temperature;humidity
20005;DHT22;69160;45.498;-73.582;2023-04-30T00:01:50;20.90;59.20
20005;DHT22;69160;45.498;-73.582;2023-04-30T00:04:17;20.90;59.10
20005;DHT22;69160;45.498;-73.582;2023-04-30T00:06:43;20.90;59.20
20005;DHT22;69160;45.498;-73.582;2023-04-30T00:09:09;20.90;59.10
20005;DHT22;69160;45.498;-73.582;2023-04-30T00:11:35;20.80;59.20
20005;DHT22;69160;45.498;-73.582;2023-04-30T00:14:01;20.90;59.10
20005;DHT22;69160;45.498;-73.582;2023-04-30T00:16:28;20.90;59.20
20005;DHT22;69160;45.498;-73.582;2023-04-30T00:18:54;20.80;59.10
20005;DHT22;69160;45.498;-73.582;2023-04-30T00:21:20;20.80;59.10
20005;DHT22;69160;45.498;-73.582;2023-04-30T00:23:46;20.80;59.30
20005;DHT22;69160;45.498;-73.582;2023-04-30T00:26:12;20.80;59.20
20005;DHT22;69160;45.498;-73.582;2023-04-30T00:28:38;20.80;59.20
20005;DHT22;69160;45.498;-73.582;2023-04-30T00:31:05;20.80;59.20
20005;DHT22;69160;45.498;-73.582;2023-04-30T00:33:34;20.80;59.10
20005;DHT22;69160;45.498;-73.582;2023-04-30T00:36:00;20.80;59.20
20005;DHT22;69160;45.498;-73.582;2023-04-30T00:38:26;20.80;59.20
20005;DHT22;69160;45.498;-73.582;2023-04-30T00:40:52;20.80;59.30
20005;DHT22;69160;45.498;-73.582;2023-04-30T00:43:18;20.80;59.20
20005;DHT22;69160;45.498;-73.582;2023-04-30T00:45:45;20.80;59.20
20005;DHT22;69160;45.498;-73.582;2023-04-30T00:48:11;20.80;59.30
20005;DHT22;69160;45.498;-73.582;2023-04-30T00:50:37;20.80;59.30
20005;DHT22;69160;45.498;-73.582;2023-04-30T00:53:04;20.80;59.30
20005;DHT22;69160;45.498;-73.582;2023-04-30T00:55:31;20.80;59.30
20005;DHT22;69160;45.498;-73.582;2023-04-30T00:57:58;20.80;59.40
20005;DHT22;69160;45.498;-73.582;2023-04-30T01:00:26;20.80;59.70
20005;DHT22;69160;45.498;-73.582;2023-04-30T01:02:53;20.80;60.00
20005;DHT22;69160;45.498;-73.582;2023-04-30T01:05:20;20.80;59.90
20005;DHT22;69160;45.498;-73.582;2023-04-30T01:07:47;20.90;59.90
20005;DHT22;69160;45.498;-73.582;2023-04-30T01:10:14;20.80;59.60
20005;DHT22;69160;45.498;-73.582;2023-04-30T01:12:57;20.80;59.60
20005;DHT22;69160;45.498;-73.582;2023-04-30T01:18:06;20.80;59.60
20005;DHT22;69160;45.498;-73.582;2023-04-30T01:20:41;20.80;59.50
20005;DHT22;69160;45.498;-73.582;2023-04-30T01:28:43;20.80;59.50
20005;DHT22;69160;45.498;-73.582;2023-04-30T01:31:17;20.80;59.70
20005;DHT22;69160;45.498;-73.582;2023-04-30T01:33:43;20.80;59.50
20005;DHT22;69160;45.498;-73.582;2023-04-30T01:36:20;20.80;59.80
20005;DHT22;69160;45.498;-73.582;2023-04-30T01:47:05;20.80;59.80
20005;DHT22;69160;45.498;-73.582;2023-04-30T01:52:51;20.80;59.80
20005;DHT22;69160;45.498;-73.582;2023-04-30T01:55:26;20.80;59.70
20005;DHT22;69160;45.498;-73.582;2023-04-30T01:57:56;20.70;59.60
20005;DHT22;69160;45.498;-73.582;2023-04-30T02:00:25;20.80;59.70
20005;DHT22;69160;45.498;-73.582;2023-04-30T02:02:51;20.80;59.80
20005;DHT22;69160;45.498;-73.582;2023-04-30T02:05:18;20.70;59.70
20005;DHT22;69160;45.498;-73.582;2023-04-30T02:07:45;20.70;59.80
20005;DHT22;69160;45.498;-73.582;2023-04-30T02:10:13;20.70;59.90
20005;DHT22;69160;45.498;-73.582;2023-04-30T02:12:40;20.70;59.90
20005;DHT22;69160;45.498;-73.582;2023-04-30T02:15:06;20.70;59.80
20005;DHT22;69160;45.498;-73.582;2023-04-30T02:17:33;20.70;59.80
20005;DHT22;69160;45.498;-73.582;2023-04-30T02:19:59;20.70;59.90
20005;DHT22;69160;45.498;-73.582;2023-04-30T02:22:25;20.70;59.90
20005;DHT22;69160;45.498;-73.582;2023-04-30T02:24:52;20.70;59.80
20005;DHT22;69160;45.498;-73.582;2023-04-30T02:27:21;20.70;60.00
20005;DHT22;69160;45.498;-73.582;2023-04-30T02:29:48;20.70;59.90
20005;DHT22;69160;45.498;-73.582;2023-04-30T02:32:14;20.70;60.00
20005;DHT22;69160;45.498;-73.582;2023-04-30T02:34:41;20.70;60.20
20005;DHT22;69160;45.498;-73.582;2023-04-30T02:37:07;20.70;60.00
20005;DHT22;69160;45.498;-73.582;2023-04-30T02:39:34;20.70;60.00
20005;DHT22;69160;45.498;-73.582;2023-04-30T02:42:00;20.70;59.90
20005;DHT22;69160;45.498;-73.582;2023-04-30T02:44:26;20.70;59.80
20005;DHT22;69160;45.498;-73.582;2023-04-30T02:46:52;20.70;59.90
20005;DHT22;69160;45.498;-73.582;2023-04-30T02:49:18;20.70;60.00
20005;DHT22;69160;45.498;-73.582;2023-04-30T02:51:44;20.70;59.90
20005;DHT22;69160;45.498;-73.582;2023-04-30T02:54:10;20.70;59.90
20005;DHT22;69160;45.498;-73.582;2023-04-30T02:56:37;20.60;59.80
20005;DHT22;69160;45.498;-73.582;2023-04-30T02:59:06;20.60;60.00
20005;DHT22;69160;45.498;-73.582;2023-04-30T03:01:33;20.60;60.00
20005;DHT22;69160;45.498;-73.582;2023-04-30T03:03:59;20.60;60.00
20005;DHT22;69160;45.498;-73.582;2023-04-30T03:06:25;20.60;60.10
20005;DHT22;69160;45.498;-73.582;2023-04-30T03:08:51;20.60;60.00
20005;DHT22;69160;45.498;-73.582;2023-04-30T03:11:17;20.60;60.00
20005;DHT22;69160;45.498;-73.582;2023-04-30T03:13:44;20.70;60.10
20005;DHT22;69160;45.498;-73.582;2023-04-30T03:16:11;20.60;60.00
20005;DHT22;69160;45.498;-73.582;2023-04-30T03:18:37;20.60;60.00
20005;DHT22;69160;45.498;-73.582;2023-04-30T03:21:03;20.60;60.00
20005;DHT22;69160;45.498;-73.582;2023-04-30T03:23:29;20.60;60.00
20005;DHT22;69160;45.498;-73.582;2023-04-30T03:25:56;20.60;60.00
20005;DHT22;69160;45.498;-73.582;2023-04-30T03:28:22;20.60;60.00
20005;DHT22;69160;45.498;-73.582;2023-04-30T03:30:48;20.60;59.90
20005;DHT22;69160;45.498;-73.582;2023-04-30T03:33:14;20.60;60.00
20005;DHT22;69160;45.498;-73.582;2023-04-30T03:35:40;20.60;60.00
20005;DHT22;69160;45.498;-73.582;2023-04-30T03:38:07;20.60;60.00
20005;DHT22;69160;45.498;-73.582;2023-04-30T03:40:33;20.60;60.00
20005;DHT22;69160;45.498;-73.582;2023-04-30T03:42:59;20.60;60.00
20005;DHT22;69160;45.498;-73.582;2023-04-30T03:45:25;20.60;60.00
20005;DHT22;69160;45.498;-73.582;2023-04-30T03:47:51;20.60;60.10
20005;DHT22;69160;45.498;-73.582;2023-04-30T03:50:18;20.60;60.00
20005;DHT22;69160;45.498;-73.582;2023-04-30T03:52:44;20.60;60.10
20005;DHT22;69160;45.498;-73.582;2023-04-30T03:55:11;20.60;60.10
20005;DHT22;69160;45.498;-73.582;2023-04-30T03:57:38;20.60;60.00
20005;DHT22;69160;45.498;-73.582;2023-04-30T04:00:08;20.60;60.10
20005;DHT22;69160;45.498;-73.582;2023-04-30T04:02:38;20.60;60.10
20005;DHT22;69160;45.498;-73.582;2023-04-30T04:05:05;20.60;60.00
20005;DHT22;69160;45.498;-73.582;2023-04-30T04:07:31;20.60;60.00
20005;DHT22;69160;45.498;-73.582;2023-04-30T04:09:57;20.60;60.00
20005;DHT22;69160;45.498;-73.582;2023-04-30T04:12:24;20.60;59.90
20005;DHT22;69160;45.498;-73.582;2023-04-30T04:14:50;20.60;59.90
20005;DHT22;69160;45.498;-73.582;2023-04-30T04:17:17;20.60;59.80
20005;DHT22;69160;45.498;-73.582;2023-04-30T04:19:43;20.60;59.90
20005;DHT22;69160;45.498;-73.582;2023-04-30T04:22:09;20.60;59.90
20005;DHT22;69160;45.498;-73.582;2023-04-30T04:24:35;20.60;59.90
20005;DHT22;69160;45.498;-73.582;2023-04-30T04:27:03;20.50;59.70
20005;DHT22;69160;45.498;-73.582;2023-04-30T04:29:30;20.60;59.90
20005;DHT22;69160;45.498;-73.582;2023-04-30T04:31:57;20.60;59.80
20005;DHT22;69160;45.498;-73.582;2023-04-30T04:34:25;20.60;59.90
20005;DHT22;69160;45.498;-73.582;2023-04-30T04:36:51;20.50;59.80
20005;DHT22;69160;45.498;-73.582;2023-04-30T04:39:17;20.50;59.80
20005;DHT22;69160;45.498;-73.582;2023-04-30T04:41:43;20.50;59.80
20005;DHT22;69160;45.498;-73.582;2023-04-30T04:44:10;20.60;59.80
20005;DHT22;69160;45.498;-73.582;2023-04-30T04:46:36;20.50;59.80
20005;DHT22;69160;45.498;-73.582;2023-04-30T04:49:09;20.50;59.90
20005;DHT22;69160;45.498;-73.582;2023-04-30T04:51:35;20.50;59.80
20005;DHT22;69160;45.498;-73.582;2023-04-30T04:54:01;20.50;59.80
20005;DHT22;69160;45.498;-73.582;2023-04-30T04:56:28;20.50;59.80
20005;DHT22;69160;45.498;-73.582;2023-04-30T04:58:54;20.50;59.80
20005;DHT22;69160;45.498;-73.582;2023-04-30T05:01:20;20.50;59.90
20005;DHT22;69160;45.498;-73.582;2023-04-30T05:03:46;20.50;59.80
20005;DHT22;69160;45.498;-73.582;2023-04-30T05:06:13;20.50;59.80
20005;DHT22;69160;45.498;-73.582;2023-04-30T05:08:39;20.50;59.80
20005;DHT22;69160;45.498;-73.582;2023-04-30T05:11:06;20.50;59.80
20005;DHT22;69160;45.498;-73.582;2023-04-30T05:13:32;20.50;59.70
20005;DHT22;69160;45.498;-73.582;2023-04-30T05:15:58;20.50;60.00
20005;DHT22;69160;45.498;-73.582;2023-04-30T05:18:24;20.50;59.80
20005;DHT22;69160;45.498;-73.582;2023-04-30T05:20:50;20.50;59.90
20005;DHT22;69160;45.498;-73.582;2023-04-30T05:23:16;20.50;59.80
20005;DHT22;69160;45.498;-73.582;2023-04-30T05:25:42;20.50;59.80
20005;DHT22;69160;45.498;-73.582;2023-04-30T05:28:08;20.40;59.80
20005;DHT22;69160;45.498;-73.582;2023-04-30T05:30:35;20.40;59.80
20005;DHT22;69160;45.498;-73.582;2023-04-30T05:33:01;20.50;59.80
20005;DHT22;69160;45.498;-73.582;2023-04-30T05:35:28;20.50;59.80
20005;DHT22;69160;45.498;-73.582;2023-04-30T05:37:55;20.50;59.90
20005;DHT22;69160;45.498;-73.582;2023-04-30T05:40:21;20.50;59.80
20005;DHT22;69160;45.498;-73.582;2023-04-30T05:42:48;20.40;59.70
20005;DHT22;69160;45.498;-73.582;2023-04-30T05:45:14;20.40;59.70
20005;DHT22;69160;45.498;-73.582;2023-04-30T05:47:41;20.50;59.80
20005;DHT22;69160;45.498;-73.582;2023-04-30T05:50:09;20.50;59.70
20005;DHT22;69160;45.498;-73.582;2023-04-30T05:52:35;20.40;59.70
20005;DHT22;69160;45.498;-73.582;2023-04-30T05:55:01;20.40;59.70
20005;DHT22;69160;45.498;-73.582;2023-04-30T05:57:28;20.40;59.70
20005;DHT22;69160;45.498;-73.582;2023-04-30T05:59:54;20.40;59.80
20005;DHT22;69160;45.498;-73.582;2023-04-30T06:02:20;20.40;59.60
20005;DHT22;69160;45.498;-73.582;2023-04-30T06:04:46;20.40;59.70
20005;DHT22;69160;45.498;-73.582;2023-04-30T06:07:13;20.40;59.70
20005;DHT22;69160;45.498;-73.582;2023-04-30T06:09:39;20.40;59.70
20005;DHT22;69160;45.498;-73.582;2023-04-30T06:12:05;20.40;59.70
20005;DHT22;69160;45.498;-73.582;2023-04-30T06:14:31;20.40;59.60
20005;DHT22;69160;45.498;-73.582;2023-04-30T06:16:57;20.40;59.70
20005;DHT22;69160;45.498;-73.582;2023-04-30T06:19:24;20.40;59.70
20005;DHT22;69160;45.498;-73.582;2023-04-30T06:21:50;20.40;59.60
20005;DHT22;69160;45.498;-73.582;2023-04-30T06:24:16;20.40;59.70
20005;DHT22;69160;45.498;-73.582;2023-04-30T06:26:42;20.40;59.60
20005;DHT22;69160;45.498;-73.582;2023-04-30T06:29:08;20.40;59.60
20005;DHT22;69160;45.498;-73.582;2023-04-30T06:31:34;20.40;59.50
20005;DHT22;69160;45.498;-73.582;2023-04-30T06:34:01;20.40;59.60
20005;DHT22;69160;45.498;-73.582;2023-04-30T06:36:27;20.40;59.50
20005;DHT22;69160;45.498;-73.582;2023-04-30T06:38:53;20.40;59.60
20005;DHT22;69160;45.498;-73.582;2023-04-30T06:41:19;20.40;59.60
20005;DHT22;69160;45.498;-73.582;2023-04-30T06:43:45;20.40;59.60
20005;DHT22;69160;45.498;-73.582;2023-04-30T06:46:11;20.40;59.60
20005;DHT22;69160;45.498;-73.582;2023-04-30T06:48:39;20.40;59.60
20005;DHT22;69160;45.498;-73.582;2023-04-30T06:51:05;20.40;59.70
20005;DHT22;69160;45.498;-73.582;2023-04-30T06:53:32;20.40;59.50
20005;DHT22;69160;45.498;-73.582;2023-04-30T06:55:58;20.40;59.50
20005;DHT22;69160;45.498;-73.582;2023-04-30T06:58:24;20.40;59.50
20005;DHT22;69160;45.498;-73.582;2023-04-30T07:00:50;20.40;59.60
20005;DHT22;69160;45.498;-73.582;2023-04-30T07:03:17;20.40;59.50
20005;DHT22;69160;45.498;-73.582;2023-04-30T07:05:43;20.30;59.50
20005;DHT22;69160;45.498;-73.582;2023-04-30T07:08:09;20.30;59.40
20005;DHT22;69160;45.498;-73.582;2023-04-30T07:10:35;20.30;59.40
20005;DHT22;69160;45.498;-73.582;2023-04-30T07:13:02;20.30;59.50
20005;DHT22;69160;45.498;-73.582;2023-04-30T07:15:28;20.30;59.50
20005;DHT22;69160;45.498;-73.582;2023-04-30T07:17:54;20.30;60.00
20005;DHT22;69160;45.498;-73.582;2023-04-30T07:20:20;20.30;59.50
20005;DHT22;69160;45.498;-73.582;2023-04-30T07:22:46;20.30;59.40
20005;DHT22;69160;45.498;-73.582;2023-04-30T07:25:13;20.30;59.40
20005;DHT22;69160;45.498;-73.582;2023-04-30T07:27:39;20.30;59.40
20005;DHT22;69160;45.498;-73.582;2023-04-30T07:30:07;20.30;59.40
20005;DHT22;69160;45.498;-73.582;2023-04-30T07:32:35;20.30;59.40
20005;DHT22;69160;45.498;-73.582;2023-04-30T07:35:02;20.30;59.40
20005;DHT22;69160;45.498;-73.582;2023-04-30T07:37:28;20.30;59.40
20005;DHT22;69160;45.498;-73.582;2023-04-30T07:39:55;20.30;59.40
20005;DHT22;69160;45.498;-73.582;2023-04-30T07:42:21;20.30;59.40
20005;DHT22;69160;45.498;-73.582;2023-04-30T07:44:47;20.30;59.40
20005;DHT22;69160;45.498;-73.582;2023-04-30T07:47:14;20.30;59.40
20005;DHT22;69160;45.498;-73.582;2023-04-30T07:49:40;20.30;59.50
20005;DHT22;69160;45.498;-73.582;2023-04-30T07:52:06;20.30;59.40
20005;DHT22;69160;45.498;-73.582;2023-04-30T07:54:36;20.30;59.50
20005;DHT22;69160;45.498;-73.582;2023-04-30T07:57:04;20.30;59.50
20005;DHT22;69160;45.498;-73.582;2023-04-30T07:59:30;20.30;59.60
20005;DHT22;69160;45.498;-73.582;2023-04-30T08:01:57;20.30;59.50
20005;DHT22;69160;45.498;-73.582;2023-04-30T08:04:23;20.30;59.50
20005;DHT22;69160;45.498;-73.582;2023-04-30T08:06:49;20.30;59.60
20005;DHT22;69160;45.498;-73.582;2023-04-30T08:09:16;20.30;59.60
20005;DHT22;69160;45.498;-73.582;2023-04-30T08:11:42;20.30;59.60
20005;DHT22;69160;45.498;-73.582;2023-04-30T08:14:09;20.30;59.50
20005;DHT22;69160;45.498;-73.582;2023-04-30T08:16:35;20.30;59.50
20005;DHT22;69160;45.498;-73.582;2023-04-30T08:19:01;20.30;59.50
20005;DHT22;69160;45.498;-73.582;2023-04-30T08:21:28;20.30;59.50
20005;DHT22;69160;45.498;-73.582;2023-04-30T08:23:55;20.30;59.50
20005;DHT22;69160;45.498;-73.582;2023-04-30T08:26:22;20.20;59.50
20005;DHT22;69160;45.498;-73.582;2023-04-30T08:28:48;20.20;59.60
20005;DHT22;69160;45.498;-73.582;2023-04-30T08:31:14;20.20;59.60
20005;DHT22;69160;45.498;-73.582;2023-04-30T08:33:40;20.20;59.50
20005;DHT22;69160;45.498;-73.582;2023-04-30T08:36:07;20.20;59.60
20005;DHT22;69160;45.498;-73.582;2023-04-30T08:38:33;20.20;60.20
20005;DHT22;69160;45.498;-73.582;2023-04-30T08:41:08;20.20;59.60
20005;DHT22;69160;45.498;-73.582;2023-04-30T08:43:36;20.20;59.60
20005;DHT22;69160;45.498;-73.582;2023-04-30T08:46:03;20.20;59.60
20005;DHT22;69160;45.498;-73.582;2023-04-30T08:48:30;20.20;59.50
20005;DHT22;69160;45.498;-73.582;2023-04-30T08:51:00;20.20;59.50
20005;DHT22;69160;45.498;-73.582;2023-04-30T08:53:28;20.20;59.60
20005;DHT22;69160;45.498;-73.582;2023-04-30T08:55:55;20.20;59.60
20005;DHT22;69160;45.498;-73.582;2023-04-30T08:58:21;20.20;59.60
20005;DHT22;69160;45.498;-73.582;2023-04-30T09:00:48;20.20;59.60
20005;DHT22;69160;45.498;-73.582;2023-04-30T09:03:14;20.20;59.50
20005;DHT22;69160;45.498;-73.582;2023-04-30T09:05:40;20.20;59.50
20005;DHT22;69160;45.498;-73.582;2023-04-30T09:08:07;20.20;59.60
20005;DHT22;69160;45.498;-73.582;2023-04-30T09:10:34;20.20;59.60
20005;DHT22;69160;45.498;-73.582;2023-04-30T09:13:07;20.10;59.50
20005;DHT22;69160;45.498;-73.582;2023-04-30T09:15:36;20.10;59.50
20005;DHT22;69160;45.498;-73.582;2023-04-30T09:20:36;20.20;59.50
20005;DHT22;69160;45.498;-73.582;2023-04-30T09:23:12;20.20;59.60
20005;DHT22;69160;45.498;-73.582;2023-04-30T09:25:42;20.10;59.50
20005;DHT22;69160;45.498;-73.582;2023-04-30T09:28:12;20.10;59.50
20005;DHT22;69160;45.498;-73.582;2023-04-30T09:30:39;20.10;59.50
20005;DHT22;69160;45.498;-73.582;2023-04-30T09:33:06;20.10;59.50
20005;DHT22;69160;45.498;-73.582;2023-04-30T09:35:37;20.10;59.40
20005;DHT22;69160;45.498;-73.582;2023-04-30T09:38:04;20.10;59.50
20005;DHT22;69160;45.498;-73.582;2023-04-30T09:40:40;20.10;59.60
20005;DHT22;69160;45.498;-73.582;2023-04-30T09:43:08;20.10;59.60
20005;DHT22;69160;45.498;-73.582;2023-04-30T09:45:44;20.10;59.60
20005;DHT22;69160;45.498;-73.582;2023-04-30T09:48:26;20.10;59.50
20005;DHT22;69160;45.498;-73.582;2023-04-30T09:50:56;20.10;59.60
20005;DHT22;69160;45.498;-73.582;2023-04-30T09:53:22;20.10;59.60
20005;DHT22;69160;45.498;-73.582;2023-04-30T09:55:50;20.10;59.60
20005;DHT22;69160;45.498;-73.582;2023-04-30T09:58:17;20.10;59.60
20005;DHT22;69160;45.498;-73.582;2023-04-30T10:00:49;20.10;59.60
20005;DHT22;69160;45.498;-73.582;2023-04-30T10:03:18;20.10;59.60
20005;DHT22;69160;45.498;-73.582;2023-04-30T10:05:47;20.10;59.60
20005;DHT22;69160;45.498;-73.582;2023-04-30T10:08:29;20.10;59.70
20005;DHT22;69160;45.498;-73.582;2023-04-30T10:11:03;20.10;59.60
20005;DHT22;69160;45.498;-73.582;2023-04-30T10:13:58;20.10;59.50
20005;DHT22;69160;45.498;-73.582;2023-04-30T10:19:35;20.00;59.50
20005;DHT22;69160;45.498;-73.582;2023-04-30T10:22:01;20.10;59.50
20005;DHT22;69160;45.498;-73.582;2023-04-30T10:24:28;20.10;59.60
20005;DHT22;69160;45.498;-73.582;2023-04-30T10:26:55;20.10;59.60
20005;DHT22;69160;45.498;-73.582;2023-04-30T10:29:22;20.10;59.60
20005;DHT22;69160;45.498;-73.582;2023-04-30T10:31:50;20.00;59.40
20005;DHT22;69160;45.498;-73.582;2023-04-30T10:34:35;20.00;59.40
20005;DHT22;69160;45.498;-73.582;2023-04-30T10:39:55;20.00;59.40
20005;DHT22;69160;45.498;-73.582;2023-04-30T10:42:21;20.00;59.50
20005;DHT22;69160;45.498;-73.582;2023-04-30T10:44:47;20.00;59.50
20005;DHT22;69160;45.498;-73.582;2023-04-30T10:47:16;20.00;59.50
20005;DHT22;69160;45.498;-73.582;2023-04-30T10:49:48;20.00;59.50
20005;DHT22;69160;45.498;-73.582;2023-04-30T10:52:26;20.00;59.50
20005;DHT22;69160;45.498;-73.582;2023-04-30T10:54:52;20.00;59.50
20005;DHT22;69160;45.498;-73.582;2023-04-30T10:57:20;20.00;59.50
20005;DHT22;69160;45.498;-73.582;2023-04-30T11:00:38;20.00;59.50
20005;DHT22;69160;45.498;-73.582;2023-04-30T11:02:45;20.00;59.50
20005;DHT22;69160;45.498;-73.582;2023-04-30T11:05:16;20.00;59.60
20005;DHT22;69160;45.498;-73.582;2023-04-30T11:08:12;20.00;59.50
20005;DHT22;69160;45.498;-73.582;2023-04-30T11:10:56;20.00;59.50
20005;DHT22;69160;45.498;-73.582;2023-04-30T11:13:26;20.00;59.50
20005;DHT22;69160;45.498;-73.582;2023-04-30T11:15:53;20.00;59.50
20005;DHT22;69160;45.498;-73.582;2023-04-30T11:18:19;20.00;59.50
20005;DHT22;69160;45.498;-73.582;2023-04-30T11:20:49;20.00;59.50
20005;DHT22;69160;45.498;-73.582;2023-04-30T11:23:21;20.00;59.50
20005;DHT22;69160;45.498;-73.582;2023-04-30T11:25:48;20.00;59.50
20005;DHT22;69160;45.498;-73.582;2023-04-30T11:28:19;20.00;59.50
20005;DHT22;69160;45.498;-73.582;2023-04-30T11:30:56;20.00;59.50
20005;DHT22;69160;45.498;-73.582;2023-04-30T11:33:25;20.00;59.50
20005;DHT22;69160;45.498;-73.582;2023-04-30T11:35:52;20.00;59.40
20005;DHT22;69160;45.498;-73.582;2023-04-30T11:38:42;20.00;59.50
20005;DHT22;69160;45.498;-73.582;2023-04-30T11:41:11;20.00;59.40
20005;DHT22;69160;45.498;-73.582;2023-04-30T11:43:37;20.00;59.50
20005;DHT22;69160;45.498;-73.582;2023-04-30T11:46:08;20.00;60.00
20005;DHT22;69160;45.498;-73.582;2023-04-30T11:48:36;20.00;59.50
20005;DHT22;69160;45.498;-73.582;2023-04-30T11:51:13;20.00;59.50
20005;DHT22;69160;45.498;-73.582;2023-04-30T11:53:40;20.00;59.50
20005;DHT22;69160;45.498;-73.582;2023-04-30T11:56:07;20.00;59.40
20005;DHT22;69160;45.498;-73.582;2023-04-30T11:58:34;20.00;59.50
20005;DHT22;69160;45.498;-73.582;2023-04-30T12:01:03;20.00;59.50
20005;DHT22;69160;45.498;-73.582;2023-04-30T12:03:30;20.00;59.40
20005;DHT22;69160;45.498;-73.582;2023-04-30T12:05:56;20.00;59.50
20005;DHT22;69160;45.498;-73.582;2023-04-30T12:08:23;20.00;60.00
20005;DHT22;69160;45.498;-73.582;2023-04-30T12:10:49;20.00;59.80
20005;DHT22;69160;45.498;-73.582;2023-04-30T12:13:15;20.00;59.80
20005;DHT22;69160;45.498;-73.582;2023-04-30T12:15:41;20.00;59.80
20005;DHT22;69160;45.498;-73.582;2023-04-30T12:18:12;20.00;59.70
20005;DHT22;69160;45.498;-73.582;2023-04-30T12:20:38;20.00;59.80
20005;DHT22;69160;45.498;-73.582;2023-04-30T12:23:06;20.00;59.80
20005;DHT22;69160;45.498;-73.582;2023-04-30T12:25:40;20.00;60.00
20005;DHT22;69160;45.498;-73.582;2023-04-30T12:28:08;20.00;60.00
20005;DHT22;69160;45.498;-73.582;2023-04-30T12:30:34;20.00;60.10
20005;DHT22;69160;45.498;-73.582;2023-04-30T12:33:01;20.00;60.20
20005;DHT22;69160;45.498;-73.582;2023-04-30T12:35:29;20.10;60.20
20005;DHT22;69160;45.498;-73.582;2023-04-30T12:38:08;20.10;60.50
20005;DHT22;69160;45.498;-73.582;2023-04-30T12:40:34;20.00;60.40
20005;DHT22;69160;45.498;-73.582;2023-04-30T12:43:04;20.00;60.50
20005;DHT22;69160;45.498;-73.582;2023-04-30T12:45:50;20.00;60.60
20005;DHT22;69160;45.498;-73.582;2023-04-30T12:48:18;20.00;60.60
20005;DHT22;69160;45.498;-73.582;2023-04-30T12:50:54;20.00;60.70
20005;DHT22;69160;45.498;-73.582;2023-04-30T12:53:21;20.10;61.90
20005;DHT22;69160;45.498;-73.582;2023-04-30T12:56:16;20.20;61.70
20005;DHT22;69160;45.498;-73.582;2023-04-30T12:58:43;20.20;61.50
20005;DHT22;69160;45.498;-73.582;2023-04-30T13:01:17;20.20;62.20
20005;DHT22;69160;45.498;-73.582;2023-04-30T13:03:44;20.20;62.00
20005;DHT22;69160;45.498;-73.582;2023-04-30T13:06:10;20.30;62.80
20005;DHT22;69160;45.498;-73.582;2023-04-30T13:08:36;20.40;62.20
20005;DHT22;69160;45.498;-73.582;2023-04-30T13:11:02;20.40;61.70
20005;DHT22;69160;45.498;-73.582;2023-04-30T13:13:29;20.50;62.00
20005;DHT22;69160;45.498;-73.582;2023-04-30T13:15:55;20.50;62.30
20005;DHT22;69160;45.498;-73.582;2023-04-30T13:18:21;20.40;62.20
20005;DHT22;69160;45.498;-73.582;2023-04-30T13:20:47;20.50;62.60
20005;DHT22;69160;45.498;-73.582;2023-04-30T13:23:14;20.60;62.80
20005;DHT22;69160;45.498;-73.582;2023-04-30T13:25:40;20.50;62.30
20005;DHT22;69160;45.498;-73.582;2023-04-30T13:28:06;20.50;62.10
20005;DHT22;69160;45.498;-73.582;2023-04-30T13:30:33;20.50;62.10
20005;DHT22;69160;45.498;-73.582;2023-04-30T13:32:59;20.50;62.60
20005;DHT22;69160;45.498;-73.582;2023-04-30T13:35:25;20.60;62.80
20005;DHT22;69160;45.498;-73.582;2023-04-30T13:37:52;20.50;62.60
20005;DHT22;69160;45.498;-73.582;2023-04-30T13:40:19;20.50;62.40
20005;DHT22;69160;45.498;-73.582;2023-04-30T13:42:47;20.50;62.50
20005;DHT22;69160;45.498;-73.582;2023-04-30T13:45:13;20.60;62.50
20005;DHT22;69160;45.498;-73.582;2023-04-30T13:47:40;20.50;62.60
20005;DHT22;69160;45.498;-73.582;2023-04-30T13:50:07;20.50;62.50
20005;DHT22;69160;45.498;-73.582;2023-04-30T13:52:34;20.60;63.00
20005;DHT22;69160;45.498;-73.582;2023-04-30T13:55:00;20.60;62.50
20005;DHT22;69160;45.498;-73.582;2023-04-30T13:57:27;20.60;63.00
20005;DHT22;69160;45.498;-73.582;2023-04-30T13:59:54;20.60;63.50
20005;DHT22;69160;45.498;-73.582;2023-04-30T14:02:21;20.60;63.70
20005;DHT22;69160;45.498;-73.582;2023-04-30T14:04:47;20.50;63.50
20005;DHT22;69160;45.498;-73.582;2023-04-30T14:07:13;20.50;63.80
20005;DHT22;69160;45.498;-73.582;2023-04-30T14:09:39;20.50;63.70
20005;DHT22;69160;45.498;-73.582;2023-04-30T14:12:06;20.50;63.70
20005;DHT22;69160;45.498;-73.582;2023-04-30T14:14:32;20.50;63.50
20005;DHT22;69160;45.498;-73.582;2023-04-30T14:16:58;20.50;63.60
20005;DHT22;69160;45.498;-73.582;2023-04-30T14:19:26;20.60;64.60
20005;DHT22;69160;45.498;-73.582;2023-04-30T14:21:52;20.50;63.60
20005;DHT22;69160;45.498;-73.582;2023-04-30T14:24:18;20.50;63.70
20005;DHT22;69160;45.498;-73.582;2023-04-30T14:26:44;20.60;63.30
20005;DHT22;69160;45.498;-73.582;2023-04-30T14:29:11;20.60;63.50
20005;DHT22;69160;45.498;-73.582;2023-04-30T14:31:37;20.60;63.50
20005;DHT22;69160;45.498;-73.582;2023-04-30T14:34:03;20.50;63.40
20005;DHT22;69160;45.498;-73.582;2023-04-30T14:36:29;20.50;63.40
20005;DHT22;69160;45.498;-73.582;2023-04-30T14:38:56;20.60;63.70
20005;DHT22;69160;45.498;-73.582;2023-04-30T14:41:22;20.60;63.50
20005;DHT22;69160;45.498;-73.582;2023-04-30T14:43:48;20.60;63.50
20005;DHT22;69160;45.498;-73.582;2023-04-30T14:46:14;20.60;63.40
20005;DHT22;69160;45.498;-73.582;2023-04-30T14:48:40;20.60;63.60
20005;DHT22;69160;45.498;-73.582;2023-04-30T14:51:06;20.60;63.50
20005;DHT22;69160;45.498;-73.582;2023-04-30T14:53:33;20.60;63.40
20005;DHT22;69160;45.498;-73.582;2023-04-30T14:55:59;20.60;63.40
20005;DHT22;69160;45.498;-73.582;2023-04-30T14:58:25;20.60;64.10
20005;DHT22;69160;45.498;-73.582;2023-04-30T15:00:51;20.70;63.40
20005;DHT22;69160;45.498;-73.582;2023-04-30T15:03:17;20.60;62.90
20005;DHT22;69160;45.498;-73.582;2023-04-30T15:05:43;20.60;63.20
20005;DHT22;69160;45.498;-73.582;2023-04-30T15:08:09;20.60;63.30
20005;DHT22;69160;45.498;-73.582;2023-04-30T15:10:36;20.60;63.40
20005;DHT22;69160;45.498;-73.582;2023-04-30T15:13:03;20.60;63.40
20005;DHT22;69160;45.498;-73.582;2023-04-30T15:15:29;20.60;63.30
20005;DHT22;69160;45.498;-73.582;2023-04-30T15:17:56;20.60;63.30
20005;DHT22;69160;45.498;-73.582;2023-04-30T15:20:23;20.60;63.10
20005;DHT22;69160;45.498;-73.582;2023-04-30T15:22:49;20.60;63.30
20005;DHT22;69160;45.498;-73.582;2023-04-30T15:25:16;20.60;63.50
20005;DHT22;69160;45.498;-73.582;2023-04-30T15:27:45;20.60;63.00
20005;DHT22;69160;45.498;-73.582;2023-04-30T15:30:11;20.60;62.90
20005;DHT22;69160;45.498;-73.582;2023-04-30T15:32:37;20.60;62.80
20005;DHT22;69160;45.498;-73.582;2023-04-30T15:35:04;20.70;63.10